Airfield :
LOGIN :

Register | Disclaimer

   EN    FR    IT 

 










Legend :    VFR   Marginal VFR   IFR   Intensive IFR   Very Intensive IFR
Visi :
Ceiling :
>= 8 km
>= 3000ft
5 to 8 km
1000 to 3000 ft
1500m to 5 km
500 to 1000 ft
800 to 1500m
200 to 500 ft
< 800m
< 200 ft
Symbols :   Thunderstorms  Fog  Heavy snow  Heavy precipitations  Wind > 20 kt
SIGMETs :     Misc.  Thunderstorms  Icing  Turbulence  Mountain Waves  Volcanic Ashes







- Airport Elevation : 1906 ft
- IATA code : INN


LOWI - Innsbruck

CURRENT METAR :
  • 111720Z VRB01KT 9999 FEW020 SCT050 BKN080 01/M01 Q1022 R08/29//95 NOSIG

EXPIRED METARs :
  • 111650Z VRB01KT 9999 FEW020 SCT045 BKN080 00/M01 Q1021 R08/29//95 NOSIG
  • 111620Z VRB01KT 9999 FEW020 SCT045 BKN080 01/M01 Q1021 R08/29//95 NOSIG
  • 111550Z VRB01KT 9999 FEW020 SCT045 BKN080 01/M01 Q1021 R08/29//95 NOSIG
  • 111520Z 09003KT 060V120 9999 FEW015 SCT045 BKN080 01/M02 Q1021 R08/29//95 NOSIG
  • 111450Z 06003KT 020V090 9999 FEW015 SCT045 BKN080 01/M01 Q1021 R08/29//95 NOSIG

TAF TAF LOWI
Valid from the 11 at 18:00 until the 12 at 18:00 UTC


111715Z 1118/1218 VRB02KT 9999 SCT040 BKN080 TX03/1214Z TNM05/1206Z
TEMPO 1118/1124 -SN
TEMPO 1200/1208 27006KT FEW040 SCT080
BECMG 1208/1210 08005KT FEW070 SCT120
No reported NOTAMs for that airfield.



MET'MAP, your aeronautical weather chart ! - Copyright ORBIFLY December 2007 - Disclaimer

ORBIFLY MET'MAP TEAM :

Programming & Development : Alexandra Zaïnal
Concept & Development : Baudouin d'Aumeries
Co-Development & Prog : Marc-Olivier Méhu
Technical & hardware support : Manuel Goepfert

Contact : metmap@orbifly.com




SOURCES & CREDITS :

   NOAA